createdAt,value
2018-12-11T00:01:54.573Z,83.98
2018-12-11T00:04:24.835Z,83.63
2018-12-11T00:06:53.188Z,82.58
2018-12-11T00:09:21.862Z,83.10
2018-12-11T00:11:50.440Z,83.21
2018-12-11T00:14:18.745Z,83.84
2018-12-11T00:16:47.021Z,84.06
2018-12-11T00:19:15.326Z,82.97
2018-12-11T00:21:43.549Z,82.44
2018-12-11T00:24:11.847Z,82.55
2018-12-11T00:26:40.154Z,82.59
2018-12-11T00:29:08.693Z,82.91
2018-12-11T00:31:37.036Z,81.21
2018-12-11T00:34:05.537Z,82.68
2018-12-11T00:36:33.803Z,82.72
2018-12-11T00:41:43.376Z,81.86
2018-12-11T00:44:11.640Z,82.80
2018-12-11T00:46:40.353Z,82.10
2018-12-11T00:49:08.676Z,80.92
2018-12-11T00:51:37.022Z,79.90
2018-12-11T00:54:05.591Z,80.10
2018-12-11T00:56:34.169Z,80.33
2018-12-11T00:59:03.348Z,79.77
2018-12-11T01:01:31.654Z,79.18
2018-12-11T01:04:00.313Z,78.26
2018-12-11T01:09:08.197Z,77.37
2018-12-11T01:11:36.557Z,78.02
2018-12-11T01:14:05.185Z,76.97
2018-12-11T01:16:34.112Z,77.14
2018-12-11T01:19:02.539Z,77.89
2018-12-11T01:21:30.889Z,76.86
2018-12-11T01:23:59.701Z,77.32
2018-12-11T01:26:28.006Z,77.44
2018-12-11T01:28:56.311Z,76.95
2018-12-11T01:31:24.662Z,76.62
2018-12-11T01:33:53.317Z,77.07
2018-12-11T01:36:21.613Z,76.29
2018-12-11T01:38:49.973Z,76.71
2018-12-11T01:41:18.255Z,75.78
2018-12-11T01:43:46.501Z,76.18
2018-12-11T01:46:15.043Z,75.55
2018-12-11T01:48:43.786Z,75.65
2018-12-11T01:51:13.146Z,74.93
2018-12-11T01:53:41.384Z,74.83
2018-12-11T01:56:09.987Z,74.15
2018-12-11T01:58:38.424Z,74.94
2018-12-11T02:01:06.797Z,74.08
2018-12-11T02:03:36.083Z,74.09
2018-12-11T02:06:05.510Z,73.98
2018-12-11T02:08:33.839Z,74.75
2018-12-11T02:11:09.184Z,74.55
2018-12-11T02:13:37.448Z,74.28
2018-12-11T02:16:06.008Z,74.94
2018-12-11T02:18:34.616Z,73.59
2018-12-11T02:21:02.961Z,74.33
2018-12-11T02:23:31.612Z,74.42
2018-12-11T02:26:00.374Z,73.58
2018-12-11T02:28:28.692Z,74.42
2018-12-11T02:30:57.410Z,72.92
2018-12-11T02:33:25.674Z,73.01
2018-12-11T02:35:54.027Z,72.48
2018-12-11T02:38:22.565Z,72.85
2018-12-11T02:40:51.054Z,73.57
2018-12-11T02:43:19.357Z,72.99
2018-12-11T02:45:47.940Z,72.87
2018-12-11T02:48:16.193Z,72.32
2018-12-11T02:50:44.855Z,73.25
2018-12-11T02:53:13.146Z,72.82
2018-12-11T02:55:41.433Z,72.76
2018-12-11T02:58:09.762Z,72.48
2018-12-11T03:00:38.134Z,72.01
2018-12-11T03:03:06.690Z,72.71
2018-12-11T03:05:35.581Z,72.29
2018-12-11T03:08:04.020Z,71.83
2018-12-11T03:10:32.442Z,71.75
2018-12-11T03:13:01.142Z,72.36
2018-12-11T03:15:29.658Z,71.80
2018-12-11T03:18:00.105Z,71.75
2018-12-11T03:20:29.303Z,71.24
2018-12-11T03:22:57.807Z,72.52
2018-12-11T03:25:26.063Z,71.10
2018-12-11T03:27:54.293Z,71.76
2018-12-11T03:30:22.883Z,71.72
2018-12-11T03:32:51.463Z,72.56
2018-12-11T03:35:20.238Z,72.01
2018-12-11T03:37:49.033Z,72.57
2018-12-11T03:40:19.873Z,72.07
2018-12-11T03:42:50.812Z,71.84
2018-12-11T03:45:22.058Z,71.82
2018-12-11T03:47:54.349Z,71.96
2018-12-11T03:50:25.119Z,71.83
2018-12-11T03:52:56.204Z,72.51
2018-12-11T03:55:28.130Z,72.21
2018-12-11T03:57:59.193Z,72.54
2018-12-11T04:00:31.152Z,71.77
2018-12-11T04:03:02.672Z,71.83
2018-12-11T04:05:34.243Z,71.65
2018-12-11T04:08:05.885Z,72.32
2018-12-11T04:10:37.720Z,71.89
2018-12-11T04:16:13.329Z,72.58
2018-12-11T04:18:45.356Z,71.97
2018-12-11T04:21:16.612Z,72.53
2018-12-11T04:23:48.002Z,72.61
2018-12-11T04:26:20.091Z,72.05
2018-12-11T04:28:51.908Z,72.07
2018-12-11T04:31:23.274Z,72.80
2018-12-11T04:33:54.659Z,72.31
2018-12-11T04:36:26.380Z,72.37
2018-12-11T04:38:57.861Z,73.62
2018-12-11T04:41:29.911Z,73.58
2018-12-11T04:44:01.067Z,73.15
2018-12-11T04:46:31.765Z,73.73
2018-12-11T04:49:02.987Z,73.45
2018-12-11T04:51:35.072Z,73.79
2018-12-11T04:54:07.378Z,75.16
2018-12-11T04:56:39.327Z,74.38
2018-12-11T04:59:10.940Z,73.89
2018-12-11T05:01:42.410Z,74.36
2018-12-11T05:04:13.910Z,73.66
2018-12-11T05:06:45.659Z,74.52
2018-12-11T05:09:18.036Z,74.60
2018-12-11T05:11:49.660Z,73.80
2018-12-11T05:14:20.650Z,74.41
2018-12-11T05:16:52.159Z,74.35
2018-12-11T05:19:26.069Z,74.13
2018-12-11T05:21:58.734Z,74.75
2018-12-11T05:24:30.631Z,75.38
2018-12-11T05:27:03.371Z,74.73
2018-12-11T05:29:35.960Z,75.80
2018-12-11T05:32:08.962Z,74.76
2018-12-11T05:34:42.733Z,74.12
2018-12-11T05:37:13.792Z,74.42
2018-12-11T05:39:49.879Z,75.06
2018-12-11T05:42:20.631Z,74.63
2018-12-11T05:44:51.932Z,74.34
2018-12-11T05:47:23.624Z,74.14
2018-12-11T05:50:08.724Z,74.95
2018-12-11T05:52:40.790Z,75.61
2018-12-11T05:55:12.376Z,74.74
2018-12-11T05:57:43.421Z,75.07
2018-12-11T06:00:14.577Z,75.91
2018-12-11T06:02:46.093Z,74.90
2018-12-11T06:08:11.613Z,75.01
2018-12-11T06:10:43.162Z,75.77
2018-12-11T06:13:15.847Z,75.49
2018-12-11T06:15:47.402Z,75.25
2018-12-11T06:18:18.979Z,76.17
2018-12-11T06:20:50.465Z,74.38
2018-12-11T06:23:22.789Z,74.93
2018-12-11T06:25:54.656Z,75.58
2018-12-11T06:28:26.455Z,75.52
2018-12-11T06:30:58.289Z,75.17
2018-12-11T06:33:29.954Z,75.23
2018-12-11T06:36:00.412Z,75.74
2018-12-11T06:38:32.770Z,75.12
2018-12-11T06:41:05.039Z,75.37
2018-12-11T06:43:36.932Z,75.50
2018-12-11T06:46:08.578Z,75.44
2018-12-11T06:48:40.501Z,76.35
2018-12-11T06:51:11.490Z,75.75
2018-12-11T06:53:43.458Z,75.37
2018-12-11T06:56:15.317Z,74.60
2018-12-11T06:58:47.221Z,74.64
2018-12-11T07:01:18.289Z,75.06
2018-12-11T07:03:50.413Z,74.84
2018-12-11T07:06:21.792Z,75.92
2018-12-11T07:08:52.851Z,75.15
2018-12-11T07:11:24.078Z,75.52
2018-12-11T07:13:55.996Z,75.04
2018-12-11T07:16:27.554Z,74.40
2018-12-11T07:18:59.104Z,75.27
2018-12-11T07:21:31.279Z,74.87
2018-12-11T07:24:01.939Z,74.94
2018-12-11T07:26:32.938Z,74.96
2018-12-11T07:29:05.107Z,75.29
2018-12-11T07:31:36.570Z,74.76
2018-12-11T07:34:09.530Z,75.75
2018-12-11T07:36:40.860Z,75.41
2018-12-11T07:39:13.088Z,75.70
2018-12-11T07:41:44.805Z,74.74
2018-12-11T07:44:16.512Z,74.98
2018-12-11T07:46:48.291Z,74.73
2018-12-11T07:49:19.605Z,74.03
2018-12-11T07:51:51.843Z,74.22
2018-12-11T07:54:23.822Z,74.70
2018-12-11T07:57:00.880Z,74.23
2018-12-11T07:59:32.855Z,72.99
2018-12-11T08:02:06.280Z,73.27
2018-12-11T08:04:38.088Z,73.69
2018-12-11T08:07:08.818Z,73.49
2018-12-11T08:09:41.298Z,74.08
2018-12-11T08:12:13.375Z,75.02
2018-12-11T08:14:44.614Z,74.60
2018-12-11T08:17:17.065Z,73.82
2018-12-11T08:19:48.888Z,73.75
2018-12-11T08:22:19.917Z,73.32
2018-12-11T08:24:51.578Z,73.60
2018-12-11T08:27:22.885Z,72.91
2018-12-11T08:29:55.322Z,72.46
2018-12-11T08:32:27.660Z,72.71
2018-12-11T08:34:58.230Z,72.88
2018-12-11T08:37:30.576Z,73.23
2018-12-11T08:40:02.536Z,74.16
2018-12-11T08:42:34.869Z,73.30
2018-12-11T08:45:07.354Z,73.29
2018-12-11T08:47:39.247Z,73.59
2018-12-11T08:50:10.847Z,71.51
2018-12-11T08:52:42.589Z,71.44
2018-12-11T08:55:13.579Z,72.57
2018-12-11T08:57:45.282Z,71.73
2018-12-11T09:00:16.607Z,71.26
2018-12-11T09:02:47.890Z,71.47
2018-12-11T09:05:19.822Z,71.49
2018-12-11T09:07:51.140Z,71.30
2018-12-11T09:10:23.073Z,71.26
2018-12-11T09:12:54.556Z,70.88
2018-12-11T09:15:26.029Z,70.87
2018-12-11T09:17:57.687Z,71.36
2018-12-11T09:20:29.585Z,70.81
2018-12-11T09:23:01.184Z,70.60
2018-12-11T09:25:32.448Z,71.59
2018-12-11T09:28:03.820Z,71.34
2018-12-11T09:30:35.171Z,71.75
2018-12-11T09:33:07.519Z,71.02
2018-12-11T09:35:38.689Z,71.26
2018-12-11T09:38:09.333Z,70.67
2018-12-11T09:40:40.312Z,70.96
2018-12-11T09:43:11.742Z,70.80
2018-12-11T09:45:42.831Z,70.34
2018-12-11T09:48:14.298Z,70.24
2018-12-11T09:50:45.213Z,70.29
2018-12-11T09:53:16.521Z,70.51
2018-12-11T09:55:49.529Z,72.56
2018-12-11T09:58:21.234Z,72.18
2018-12-11T10:00:53.178Z,72.28
2018-12-11T10:03:24.556Z,72.79
2018-12-11T10:05:59.947Z,72.21
2018-12-11T10:08:31.640Z,72.29
2018-12-11T10:11:03.052Z,71.83
2018-12-11T10:13:34.346Z,70.84
2018-12-11T10:16:05.733Z,71.37
2018-12-11T10:18:37.424Z,71.51
2018-12-11T10:21:09.255Z,71.56
2018-12-11T10:23:41.777Z,70.27
2018-12-11T10:26:13.300Z,70.01
2018-12-11T10:28:45.107Z,69.67
2018-12-11T10:31:16.635Z,68.51
2018-12-11T10:33:48.000Z,69.49
2018-12-11T10:36:19.989Z,69.48
2018-12-11T10:38:51.008Z,69.16
2018-12-11T10:41:21.583Z,69.83
2018-12-11T10:43:53.887Z,67.94
2018-12-11T10:46:25.222Z,68.67
2018-12-11T10:48:56.700Z,69.54
2018-12-11T10:51:30.155Z,69.82
2018-12-11T10:54:02.614Z,69.57
2018-12-11T10:56:34.481Z,70.08
2018-12-11T10:59:05.440Z,69.78
2018-12-11T11:01:41.375Z,70.51
2018-12-11T11:04:12.999Z,69.44
2018-12-11T11:06:44.293Z,69.57
2018-12-11T11:09:15.830Z,68.64
2018-12-11T11:11:46.722Z,68.93
2018-12-11T11:14:18.454Z,69.61
2018-12-11T11:16:49.599Z,69.29
2018-12-11T11:19:21.191Z,68.91
2018-12-11T11:21:52.637Z,68.38
2018-12-11T11:24:23.608Z,68.75
2018-12-11T11:26:55.394Z,68.79
2018-12-11T11:29:27.582Z,67.18
2018-12-11T11:31:58.666Z,68.08
2018-12-11T11:34:39.896Z,68.65
2018-12-11T11:37:11.024Z,67.83
2018-12-11T11:39:42.154Z,67.70
2018-12-11T11:42:15.181Z,67.12
2018-12-11T11:44:46.950Z,67.61
2018-12-11T11:47:18.622Z,67.49
2018-12-11T11:49:49.960Z,67.44
2018-12-11T11:52:21.384Z,67.48
2018-12-11T11:54:52.811Z,66.42
2018-12-11T11:57:29.531Z,66.67
2018-12-11T11:59:57.900Z,66.41
2018-12-11T12:02:33.351Z,66.50
2018-12-11T12:05:03.414Z,66.16
2018-12-11T12:07:35.258Z,65.45
2018-12-11T12:10:11.252Z,65.48
2018-12-11T12:12:42.508Z,64.64
2018-12-11T12:15:13.705Z,63.55
2018-12-11T12:17:45.231Z,63.89
2018-12-11T12:20:17.367Z,63.16
2018-12-11T12:22:49.287Z,64.92
2018-12-11T12:25:21.229Z,63.92
2018-12-11T12:27:52.570Z,63.98
2018-12-11T12:30:26.783Z,63.87
2018-12-11T12:33:00.018Z,63.58
2018-12-11T12:35:31.146Z,63.86
2018-12-11T12:38:03.159Z,63.15
2018-12-11T12:40:35.270Z,63.65
2018-12-11T12:43:06.908Z,65.84
2018-12-11T12:45:39.628Z,66.07
2018-12-11T12:48:10.701Z,65.30
2018-12-11T12:50:41.167Z,66.82
2018-12-11T12:53:12.618Z,65.62
2018-12-11T12:58:30.552Z,65.90
2018-12-11T13:01:01.552Z,67.31
2018-12-11T13:03:33.176Z,67.21
2018-12-11T13:06:04.520Z,67.47
2018-12-11T13:08:36.361Z,68.01
2018-12-11T13:11:08.224Z,68.11
2018-12-11T13:13:40.497Z,70.01
2018-12-11T13:16:12.881Z,73.27
2018-12-11T13:18:44.923Z,75.50
2018-12-11T13:21:16.420Z,76.19
2018-12-11T13:23:48.165Z,75.88
2018-12-11T13:26:19.363Z,76.68
2018-12-11T13:28:51.250Z,75.23
2018-12-11T13:31:22.685Z,75.37
2018-12-11T13:33:54.529Z,75.01
2018-12-11T13:36:32.003Z,73.42
2018-12-11T13:38:59.696Z,72.94
2018-12-11T13:41:31.215Z,70.96
2018-12-11T13:44:03.132Z,69.56
2018-12-11T13:46:35.321Z,70.56
2018-12-11T13:49:07.115Z,69.23
2018-12-11T13:51:39.163Z,69.38
2018-12-11T13:54:11.114Z,68.28
2018-12-11T13:56:41.933Z,68.39
2018-12-11T13:59:13.066Z,69.08
2018-12-11T14:01:44.685Z,69.06
2018-12-11T14:04:16.605Z,68.77
2018-12-11T14:06:48.739Z,67.95
2018-12-11T14:09:26.918Z,68.70
2018-12-11T14:11:58.587Z,68.61
2018-12-11T14:14:30.173Z,68.99
2018-12-11T14:17:02.258Z,68.46
2018-12-11T14:19:33.010Z,69.15
2018-12-11T14:22:04.288Z,67.32
2018-12-11T14:24:36.542Z,69.06
2018-12-11T14:27:07.937Z,68.59
2018-12-11T14:29:40.448Z,68.07
2018-12-11T14:32:12.582Z,68.63
2018-12-11T14:34:43.727Z,68.15
2018-12-11T14:37:14.618Z,67.57
2018-12-11T14:39:46.639Z,67.37
2018-12-11T14:42:18.205Z,69.03
2018-12-11T14:44:50.149Z,68.26
2018-12-11T14:47:21.254Z,68.07
2018-12-11T14:49:52.616Z,68.69
2018-12-11T14:52:24.512Z,68.48
2018-12-11T14:54:56.107Z,69.60
2018-12-11T14:57:31.179Z,69.40
2018-12-11T15:00:03.632Z,67.99
2018-12-11T15:02:34.579Z,70.41
2018-12-11T15:05:07.339Z,69.63
2018-12-11T15:07:39.592Z,69.00
2018-12-11T15:10:13.098Z,69.72
2018-12-11T15:12:44.201Z,69.53
2018-12-11T15:15:16.149Z,68.38
2018-12-11T15:17:47.408Z,68.88
2018-12-11T15:20:18.764Z,69.38
2018-12-11T15:22:50.496Z,68.90
2018-12-11T15:25:21.431Z,69.48
2018-12-11T15:27:53.502Z,69.06
2018-12-11T15:30:25.841Z,68.14
2018-12-11T15:35:46.775Z,68.40
2018-12-11T15:38:18.860Z,68.61
2018-12-11T15:40:50.010Z,68.08
2018-12-11T15:43:22.629Z,69.11
2018-12-11T15:45:54.106Z,69.64
2018-12-11T15:48:26.134Z,69.65
2018-12-11T15:50:57.954Z,69.18
2018-12-11T15:53:29.970Z,69.76
2018-12-11T15:56:01.453Z,69.42
2018-12-11T15:58:32.861Z,68.85
2018-12-11T16:01:04.406Z,69.02
2018-12-11T16:03:36.736Z,69.55
2018-12-11T16:06:09.281Z,70.03
2018-12-11T16:08:41.073Z,70.41
2018-12-11T16:11:12.919Z,70.41
2018-12-11T16:13:44.974Z,70.74
2018-12-11T16:16:15.798Z,71.82
2018-12-11T16:18:47.744Z,71.42
2018-12-11T16:21:19.820Z,72.22
2018-12-11T16:23:52.162Z,73.60
2018-12-11T16:26:24.279Z,72.12
2018-12-11T16:28:55.512Z,72.88
2018-12-11T16:31:27.932Z,71.65
2018-12-11T16:34:00.942Z,72.13
2018-12-11T16:36:33.722Z,71.32
2018-12-11T16:39:09.688Z,71.66
2018-12-11T16:41:40.776Z,71.16
2018-12-11T16:44:11.826Z,69.66
2018-12-11T16:46:42.595Z,70.60
2018-12-11T16:49:14.706Z,70.56
2018-12-11T16:51:45.966Z,69.72
2018-12-11T16:54:18.570Z,69.46
2018-12-11T16:56:49.263Z,69.66
2018-12-11T16:59:20.329Z,68.91
2018-12-11T17:01:51.821Z,70.09
2018-12-11T17:04:23.199Z,70.00
2018-12-11T17:06:54.131Z,69.31
2018-12-11T17:09:25.535Z,70.41
2018-12-11T17:11:57.589Z,70.56
2018-12-11T17:14:29.807Z,70.32
2018-12-11T17:16:58.502Z,70.34
2018-12-11T17:19:26.883Z,69.60
2018-12-11T17:21:56.386Z,70.49
2018-12-11T17:24:25.537Z,70.80
2018-12-11T17:26:53.797Z,69.78
2018-12-11T17:29:24.621Z,69.71
2018-12-11T17:31:55.395Z,70.14
2018-12-11T17:34:25.887Z,70.49
2018-12-11T17:36:56.340Z,70.44
2018-12-11T17:39:27.104Z,70.65
2018-12-11T17:41:57.903Z,70.70
2018-12-11T17:44:29.147Z,71.07
2018-12-11T17:46:58.565Z,69.45
2018-12-11T17:49:29.063Z,69.69
2018-12-11T17:51:59.314Z,68.53
2018-12-11T17:54:31.042Z,68.73
2018-12-11T17:57:07.351Z,68.68
2018-12-11T17:59:37.703Z,69.05
2018-12-11T18:02:09.946Z,68.02
2018-12-11T18:04:40.599Z,68.29
2018-12-11T18:07:11.118Z,69.33
2018-12-11T18:09:41.783Z,69.69
2018-12-11T18:12:11.822Z,70.18
2018-12-11T18:14:42.843Z,69.59
2018-12-11T18:17:13.385Z,67.81
2018-12-11T18:19:43.835Z,68.82
2018-12-11T18:22:13.257Z,69.02
2018-12-11T18:24:43.285Z,69.32
2018-12-11T18:27:12.885Z,68.07
2018-12-11T18:29:41.170Z,67.39
2018-12-11T18:32:10.084Z,67.92
2018-12-11T18:37:26.171Z,68.99
2018-12-11T18:39:55.576Z,68.75
2018-12-11T18:42:24.157Z,68.50
2018-12-11T18:44:52.348Z,68.85
2018-12-11T18:50:01.017Z,70.78
2018-12-11T18:52:29.297Z,71.77
2018-12-11T18:54:57.879Z,71.68
2018-12-11T18:57:26.126Z,72.80
2018-12-11T18:59:54.635Z,73.17
2018-12-11T19:02:23.631Z,73.86
2018-12-11T19:04:51.928Z,73.37
2018-12-11T19:07:23.609Z,74.78
2018-12-11T19:09:55.019Z,74.20
2018-12-11T19:12:23.417Z,74.40
2018-12-11T19:14:52.966Z,74.72
2018-12-11T19:17:21.221Z,75.69
2018-12-11T19:19:49.761Z,75.47
2018-12-11T19:22:18.177Z,76.28
2018-12-11T19:24:50.987Z,75.87
2018-12-11T19:27:19.364Z,77.68
2018-12-11T19:29:47.774Z,76.79
2018-12-11T19:32:16.173Z,77.74
2018-12-11T19:34:46.763Z,78.11
2018-12-11T19:37:15.516Z,78.23
2018-12-11T19:39:43.777Z,79.09
2018-12-11T19:42:12.824Z,78.77
2018-12-11T19:44:41.294Z,79.68
2018-12-11T19:47:09.566Z,79.72
2018-12-11T19:49:38.126Z,81.32
2018-12-11T19:52:06.766Z,80.01
2018-12-11T19:54:35.455Z,81.02
2018-12-11T19:57:04.549Z,80.89
2018-12-11T19:59:34.027Z,81.50
2018-12-11T20:02:02.532Z,82.14
2018-12-11T20:04:31.498Z,81.84
2018-12-11T20:07:00.618Z,82.35
2018-12-11T20:09:28.958Z,81.97
2018-12-11T20:11:57.355Z,83.42
2018-12-11T20:14:25.938Z,83.30
2018-12-11T20:16:54.230Z,82.35
2018-12-11T20:19:22.498Z,82.57
2018-12-11T20:21:50.813Z,82.86
2018-12-11T20:24:20.230Z,82.69
2018-12-11T20:26:48.470Z,82.25
2018-12-11T20:29:17.036Z,83.22
2018-12-11T20:31:45.589Z,82.06
2018-12-11T20:34:13.889Z,83.10
2018-12-11T20:36:42.989Z,82.96
2018-12-11T20:39:12.200Z,83.33
2018-12-11T20:41:40.821Z,83.45
2018-12-11T20:44:09.432Z,84.12
2018-12-11T20:46:37.821Z,84.13
2018-12-11T20:49:06.298Z,83.91
2018-12-11T20:51:35.130Z,83.00
2018-12-11T20:54:03.447Z,83.67
2018-12-11T20:56:31.875Z,83.59
2018-12-11T20:59:00.457Z,83.77
2018-12-11T21:01:28.970Z,83.80
2018-12-11T21:03:57.525Z,83.90
2018-12-11T21:06:25.831Z,85.00
2018-12-11T21:08:54.146Z,84.39
2018-12-11T21:11:22.786Z,84.36
2018-12-11T21:13:51.246Z,83.58
2018-12-11T21:16:20.485Z,83.38
2018-12-11T21:18:49.351Z,83.66
2018-12-11T21:21:17.630Z,83.47
2018-12-11T21:26:26.038Z,84.02
2018-12-11T21:28:54.492Z,84.16
2018-12-11T21:31:22.997Z,84.51
2018-12-11T21:33:51.791Z,84.78
2018-12-11T21:36:20.092Z,85.07
2018-12-11T21:38:48.828Z,84.97
2018-12-11T21:41:17.173Z,85.04
2018-12-11T21:43:45.993Z,85.41
2018-12-11T21:46:14.509Z,85.08
2018-12-11T21:48:42.788Z,85.32
2018-12-11T21:51:11.142Z,86.15
2018-12-11T21:53:39.453Z,85.78
2018-12-11T21:56:07.886Z,86.44
2018-12-11T21:58:36.771Z,86.86
2018-12-11T22:01:05.265Z,87.90
2018-12-11T22:03:33.894Z,88.96
2018-12-11T22:06:02.733Z,89.55
2018-12-11T22:08:31.310Z,88.77
2018-12-11T22:10:59.841Z,89.30
2018-12-11T22:13:28.845Z,88.50
2018-12-11T22:15:57.537Z,87.69
2018-12-11T22:18:25.741Z,86.39
2018-12-11T22:20:53.971Z,86.27
2018-12-11T22:23:22.287Z,85.93
2018-12-11T22:25:50.774Z,86.41
2018-12-11T22:28:19.058Z,85.59
2018-12-11T22:30:47.621Z,84.56
2018-12-11T22:33:16.177Z,85.12
2018-12-11T22:35:44.482Z,84.95
2018-12-11T22:38:13.054Z,85.72
2018-12-11T22:40:41.496Z,85.31
2018-12-11T22:43:10.127Z,85.68
2018-12-11T22:45:38.858Z,84.29
2018-12-11T22:48:07.224Z,83.61
2018-12-11T22:50:36.206Z,83.08
2018-12-11T22:53:04.923Z,83.26
2018-12-11T22:55:33.804Z,83.53
2018-12-11T22:58:02.607Z,84.27
2018-12-11T23:00:31.321Z,84.33
2018-12-11T23:03:01.706Z,83.47
2018-12-11T23:05:30.077Z,82.13
2018-12-11T23:07:58.684Z,82.55
2018-12-11T23:10:27.473Z,81.90
2018-12-11T23:12:56.049Z,82.17
2018-12-11T23:15:24.689Z,80.81
2018-12-11T23:17:53.017Z,80.79
2018-12-11T23:20:21.415Z,81.04
2018-12-11T23:22:49.676Z,81.86
2018-12-11T23:25:18.349Z,84.30
2018-12-11T23:27:46.712Z,83.66
2018-12-11T23:30:15.120Z,83.74
2018-12-11T23:32:44.005Z,81.80
2018-12-11T23:35:12.563Z,82.96
2018-12-11T23:37:41.503Z,83.39
2018-12-11T23:40:10.171Z,83.41
2018-12-11T23:42:38.413Z,81.28
2018-12-11T23:45:08.709Z,80.08
2018-12-11T23:47:37.109Z,80.20
2018-12-11T23:50:06.412Z,80.95
2018-12-11T23:52:34.697Z,80.44
2018-12-11T23:55:03.551Z,81.54
2018-12-11T23:57:31.865Z,80.88
